createdAt,value
2022-09-11T00:04:16.924Z,100757.30
2022-09-11T00:09:22.318Z,100763.32
2022-09-11T00:14:29.001Z,100766.44
2022-09-11T00:19:35.758Z,100761.08
2022-09-11T00:24:41.637Z,100764.14
2022-09-11T00:29:47.130Z,100774.57
2022-09-11T00:34:52.591Z,100762.63
2022-09-11T00:39:58.072Z,100767.42
2022-09-11T00:45:07.401Z,100757.97
2022-09-11T00:50:18.902Z,100759.92
2022-09-11T00:55:27.367Z,100773.31
2022-09-11T01:00:33.049Z,100768.64
2022-09-11T01:05:41.417Z,100772.20
2022-09-11T01:10:59.285Z,100768.52
2022-09-11T01:16:12.445Z,100757.09
2022-09-11T01:21:34.618Z,100764.34
2022-09-11T01:26:52.339Z,100755.50
2022-09-11T01:32:19.005Z,100758.21
2022-09-11T01:37:37.151Z,100762.55
2022-09-11T01:42:46.111Z,100763.44
2022-09-11T01:47:53.293Z,100753.70
2022-09-11T01:53:05.192Z,100749.66
2022-09-11T01:58:21.233Z,100744.50
2022-09-11T02:03:29.944Z,100744.77
2022-09-11T02:08:53.562Z,100742.67
2022-09-11T02:14:12.443Z,100745.37
2022-09-11T02:19:21.062Z,100753.13
2022-09-11T02:24:28.294Z,100751.27
2022-09-11T02:29:34.745Z,100755.20
2022-09-11T02:34:42.962Z,100755.68
2022-09-11T02:40:20.076Z,100757.88
2022-09-11T02:45:54.579Z,100764.62
2022-09-11T02:51:22.646Z,100765.98
2022-09-11T02:56:49.519Z,100763.28
2022-09-11T03:01:59.860Z,100764.88
2022-09-11T03:07:06.199Z,100776.05
2022-09-11T03:12:11.959Z,100775.91
2022-09-11T03:17:17.604Z,100773.82
2022-09-11T03:22:25.197Z,100774.44
2022-09-11T03:27:31.082Z,100780.95
2022-09-11T03:32:37.160Z,100788.56
2022-09-11T03:37:42.755Z,100791.97
2022-09-11T03:42:49.365Z,100801.79
2022-09-11T03:47:55.985Z,100803.55
2022-09-11T03:53:01.663Z,100816.76
2022-09-11T03:58:09.542Z,100820.48
2022-09-11T04:03:17.781Z,100822.89
2022-09-11T04:08:24.646Z,100819.35
2022-09-11T04:13:37.141Z,100829.87
2022-09-11T04:18:46.037Z,100833.61
2022-09-11T04:23:57.979Z,100829.28
2022-09-11T04:29:03.970Z,100830.25
2022-09-11T04:34:10.026Z,100832.34
2022-09-11T04:39:16.663Z,100820.73
2022-09-11T04:44:25.207Z,100824.52
2022-09-11T04:49:33.206Z,100824.64
2022-09-11T04:54:38.895Z,100829.05
2022-09-11T04:59:46.014Z,100826.36
2022-09-11T05:04:52.109Z,100823.27
2022-09-11T05:09:57.763Z,100827.69
2022-09-11T05:15:04.419Z,100834.19
2022-09-11T05:20:12.036Z,100849.05
2022-09-11T05:25:18.649Z,100851.86
2022-09-11T05:30:24.455Z,100845.45
2022-09-11T05:35:32.454Z,100849.75
2022-09-11T05:40:40.159Z,100861.91
2022-09-11T05:45:46.269Z,100873.20
2022-09-11T05:50:58.269Z,100879.95
2022-09-11T05:56:13.013Z,100884.22
2022-09-11T06:01:21.723Z,100887.78
2022-09-11T06:06:29.552Z,100898.22
2022-09-11T06:11:35.259Z,100899.20
2022-09-11T06:16:41.672Z,100901.75
2022-09-11T06:21:50.915Z,100907.89
2022-09-11T06:27:07.772Z,100910.34
2022-09-11T06:32:15.356Z,100917.08
2022-09-11T06:37:21.314Z,100903.80
2022-09-11T06:42:28.181Z,100914.13
2022-09-11T06:47:35.470Z,100907.48
2022-09-11T06:52:41.613Z,100908.80
2022-09-11T06:57:48.961Z,100909.13
2022-09-11T07:02:58.018Z,100915.27
2022-09-11T07:08:05.518Z,100916.80
2022-09-11T07:13:12.642Z,100919.00
2022-09-11T07:18:18.590Z,100913.15
2022-09-11T07:23:25.314Z,100906.91
2022-09-11T07:28:31.708Z,100920.78
2022-09-11T07:33:37.866Z,100930.05
2022-09-11T07:38:45.846Z,100929.81
2022-09-11T07:43:57.118Z,100932.39
2022-09-11T07:49:04.291Z,100933.65
2022-09-11T07:54:11.601Z,100943.36
2022-09-11T07:59:18.273Z,100942.86
2022-09-11T08:04:25.593Z,100945.73
2022-09-11T08:09:31.946Z,100950.16
2022-09-11T08:14:38.780Z,100962.28
2022-09-11T08:19:52.204Z,100971.73
2022-09-11T08:24:57.864Z,100960.78
2022-09-11T08:30:04.211Z,100966.97
2022-09-11T08:35:10.819Z,100968.89
2022-09-11T08:40:17.414Z,100971.56
2022-09-11T08:45:28.108Z,100969.52
2022-09-11T08:50:36.941Z,100974.16
2022-09-11T08:55:52.037Z,100978.02
2022-09-11T09:01:10.059Z,100995.47
2022-09-11T09:06:20.430Z,100989.26
2022-09-11T09:11:39.202Z,100984.05
2022-09-11T09:16:52.605Z,100989.00
2022-09-11T09:22:21.084Z,100993.84
2022-09-11T09:27:39.268Z,101000.56
2022-09-11T09:33:11.380Z,100998.34
2022-09-11T09:38:21.853Z,100996.04
2022-09-11T09:43:46.497Z,100998.28
2022-09-11T09:48:52.184Z,100997.51
2022-09-11T09:54:01.311Z,100996.70
2022-09-11T09:59:18.750Z,100985.84
2022-09-11T10:04:30.358Z,100986.11
2022-09-11T10:09:36.387Z,100989.52
2022-09-11T10:14:51.477Z,100998.62
2022-09-11T10:19:57.853Z,101009.30
2022-09-11T10:25:26.196Z,100992.28
2022-09-11T10:30:40.475Z,101002.66
2022-09-11T10:35:55.364Z,101010.63
2022-09-11T10:41:17.561Z,101002.15
2022-09-11T10:46:29.206Z,101006.37
2022-09-11T10:51:38.092Z,101013.99
2022-09-11T10:56:52.306Z,101017.00
2022-09-11T11:01:58.422Z,101013.06
2022-09-11T11:07:12.929Z,101020.73
2022-09-11T11:12:28.991Z,101021.00
2022-09-11T11:17:37.424Z,101017.16
2022-09-11T11:23:01.186Z,101014.40
2022-09-11T11:28:40.277Z,101029.18
2022-09-11T11:34:22.340Z,101032.69
2022-09-11T11:39:51.794Z,101024.15
2022-09-11T11:45:04.670Z,101029.29
2022-09-11T11:50:18.944Z,101045.93
2022-09-11T11:55:30.902Z,101038.92
2022-09-11T12:00:39.366Z,101035.94
2022-09-11T12:05:44.932Z,101037.89
2022-09-11T12:11:02.523Z,101035.90
2022-09-11T12:16:15.113Z,101041.91
2022-09-11T12:21:31.132Z,101039.63
2022-09-11T12:26:36.560Z,101038.47
2022-09-11T12:31:53.758Z,101041.91
2022-09-11T12:37:02.215Z,101035.45
2022-09-11T12:42:28.775Z,101032.97
2022-09-11T12:47:41.947Z,101055.42
2022-09-11T12:52:51.044Z,101045.06
2022-09-11T12:57:57.543Z,101055.98
2022-09-11T13:03:04.546Z,101052.48
2022-09-11T13:08:24.600Z,101049.91
2022-09-11T13:13:39.634Z,101051.22
2022-09-11T13:18:45.336Z,101063.87
2022-09-11T13:23:51.477Z,101064.61
2022-09-11T13:28:59.732Z,101062.55
2022-09-11T13:34:08.192Z,101069.04
2022-09-11T13:39:17.497Z,101066.09
2022-09-11T13:44:31.791Z,101065.30
2022-09-11T13:49:42.496Z,101061.46
2022-09-11T13:54:51.008Z,101067.84
2022-09-11T13:59:58.168Z,101068.02
2022-09-11T14:05:26.133Z,101080.98
2022-09-11T14:10:34.201Z,101072.89
2022-09-11T14:15:48.495Z,101070.39
2022-09-11T14:20:55.982Z,101076.05
2022-09-11T14:26:17.123Z,101076.08
2022-09-11T14:31:45.300Z,101077.09
2022-09-11T14:37:01.824Z,101079.78
2022-09-11T14:42:22.882Z,101075.79
2022-09-11T14:47:30.222Z,101078.67
2022-09-11T14:52:37.271Z,101072.72
2022-09-11T14:57:43.026Z,101071.94
2022-09-11T15:02:48.594Z,101076.45
2022-09-11T15:07:54.109Z,101067.42
2022-09-11T15:13:00.042Z,101070.14
2022-09-11T15:18:06.167Z,101071.64
2022-09-11T15:23:11.587Z,101074.95
2022-09-11T15:28:17.062Z,101075.92
2022-09-11T15:33:22.546Z,101080.86
2022-09-11T15:38:28.013Z,101086.97
2022-09-11T15:43:38.948Z,101086.05
2022-09-11T15:48:46.184Z,101089.84
2022-09-11T15:53:52.637Z,101094.27
2022-09-11T15:59:00.461Z,101090.00
2022-09-11T16:04:09.251Z,101091.45
2022-09-11T16:09:17.291Z,101093.12
2022-09-11T16:14:25.712Z,101086.67
2022-09-11T16:19:32.998Z,101088.59
2022-09-11T16:24:38.799Z,101085.62
2022-09-11T16:30:25.978Z,101090.55
2022-09-11T16:34:52.373Z,101088.86
2022-09-11T16:39:58.268Z,101090.52
2022-09-11T16:45:03.741Z,101091.17
2022-09-11T16:50:10.184Z,101095.70
2022-09-11T16:55:18.170Z,101100.66
2022-09-11T17:00:23.663Z,101095.55
2022-09-11T17:05:29.194Z,101097.91
2022-09-11T17:10:34.630Z,101098.34
2022-09-11T17:15:42.340Z,101096.20
2022-09-11T17:20:48.189Z,101093.86
2022-09-11T17:25:53.839Z,101090.48
2022-09-11T17:31:05.206Z,101093.58
2022-09-11T17:36:12.214Z,101088.05
2022-09-11T17:41:17.850Z,101096.00
2022-09-11T17:46:24.601Z,101106.23
2022-09-11T17:51:30.493Z,101105.13
2022-09-11T17:56:36.072Z,101108.20
2022-09-11T18:01:41.622Z,101107.12
2022-09-11T18:06:47.106Z,101111.49
2022-09-11T18:11:54.728Z,101113.31
2022-09-11T18:17:01.548Z,101104.74
2022-09-11T18:22:09.697Z,101103.52
2022-09-11T18:27:15.432Z,101103.64
2022-09-11T18:32:20.913Z,101105.24
2022-09-11T18:37:26.999Z,101107.83
2022-09-11T18:42:32.413Z,101114.47
2022-09-11T18:47:38.267Z,101114.48
2022-09-11T18:52:43.942Z,101122.14
2022-09-11T18:57:50.011Z,101131.00
2022-09-11T19:03:00.193Z,101126.45
2022-09-11T19:08:05.875Z,101124.85
2022-09-11T19:13:11.268Z,101126.33
2022-09-11T19:18:16.731Z,101129.53
2022-09-11T19:23:22.221Z,101131.87
2022-09-11T19:28:28.158Z,101136.55
2022-09-11T19:33:35.835Z,101140.72
2022-09-11T19:38:41.877Z,101131.13
2022-09-11T19:43:48.674Z,101136.70
2022-09-11T19:48:57.105Z,101148.68
2022-09-11T19:54:04.451Z,101146.38
2022-09-11T19:59:10.699Z,101152.28
2022-09-11T20:04:17.766Z,101151.42
2022-09-11T20:09:32.033Z,101146.78
2022-09-11T20:14:31.277Z,101150.23
2022-09-11T20:19:36.822Z,101167.08
2022-09-11T20:24:42.224Z,101164.98
2022-09-11T20:29:47.671Z,101170.64
2022-09-11T20:34:53.151Z,101168.42
2022-09-11T20:40:00.465Z,101169.78
2022-09-11T20:45:06.594Z,101165.96
2022-09-11T20:50:13.542Z,101175.18
2022-09-11T20:55:19.161Z,101174.32
2022-09-11T21:00:24.567Z,101169.28
2022-09-11T21:05:30.218Z,101163.87
2022-09-11T21:10:39.146Z,101161.03
2022-09-11T21:15:46.682Z,101157.59
2022-09-11T21:20:56.632Z,101150.83
2022-09-11T21:26:02.197Z,101155.63
2022-09-11T21:31:08.230Z,101158.08
2022-09-11T21:36:13.817Z,101153.80
2022-09-11T21:41:19.491Z,101155.16
2022-09-11T21:46:25.921Z,101150.23
2022-09-11T21:51:31.440Z,101152.33
2022-09-11T21:56:36.898Z,101157.48
2022-09-11T22:01:42.421Z,101154.78
2022-09-11T22:06:47.844Z,101157.36
2022-09-11T22:11:56.750Z,101150.58
2022-09-11T22:17:01.576Z,101160.30
2022-09-11T22:22:07.056Z,101170.38
2022-09-11T22:27:13.152Z,101170.25
2022-09-11T22:32:18.537Z,101173.45
2022-09-11T22:37:23.919Z,101176.92
2022-09-11T22:42:30.971Z,101184.41
2022-09-11T22:47:36.724Z,101178.12
2022-09-11T22:52:42.104Z,101181.30
2022-09-11T22:57:47.507Z,101176.03
2022-09-11T23:02:52.900Z,101174.80
2022-09-11T23:07:58.278Z,101176.03
2022-09-11T23:13:03.744Z,101171.00
2022-09-11T23:18:09.307Z,101174.31
2022-09-11T23:23:14.705Z,101176.40
2022-09-11T23:28:20.481Z,101177.14
2022-09-11T23:33:26.215Z,101169.88
2022-09-11T23:38:31.762Z,101169.99
2022-09-11T23:43:37.236Z,101173.19
2022-09-11T23:48:43.638Z,101168.50
2022-09-11T23:53:50.684Z,101163.83
2022-09-11T23:58:56.287Z,101160.13
